Schley, Virginia
Current Conditions -  °F | °C
As of 3:55 PM on Saturday 20 Dec 2014 (Local Time) from KW75 Reporting Station
Overcast Overcast  
Wind Chill: 36°   Ceiling: 9000
Heat Index: 36°   Visibility: 10mi
Dew Point: 25°   Wind: 3mph
Humidity: 65%   Direction: 330°NNW
Pressure: 30.27"   Gusts: NA
Location:  37.39°N, 76.46°W
Report Text: KW75 202055Z AUTO 33003KT 10SM BKN090 OVC120 02/M04 A3027 RMK AO1 T00221038
Loading
Personal Weather Stations






























Interactive Weather Map New forecast layout! Learn more

10-Day Weather Forecast

Advertisements
Track Severe Weather on mobile